DNMM

Murtala Muhammed International Airport

Lagos, Nigeria
METAR DNMM 222100Z VRB02KT 9999 FEW012 28/25 Q1013 NOSIG
Observed Flight Rules
Apr-22 @ 21:00 UTC (an hour ago) Visual Flight Rules
Wind Visibility Clouds
Variable at 2 knots 10,000+ meters
  • Few at 1,200' AGL
Temperatures Readings
Current 28°C / 82°F
Dewpoint 25°C / 77°F
Humidity 84%
Altimeter 29.91" Hg
Pressure 1013 hPa
Elevation 38
METAR DNMM 222100Z VRB02KT 9999 FEW012 28/25 Q1013 NOSIG
Observed Flight Rules
Apr-22 @ 21:00 UTC
(an hour ago)
VFR
Wind Visibility
Variable at 2 knots 10,000+ meters
Clouds
  • Few at 1,200' AGL
Temperature Dewpoint
28°C / 82°F 25°C / 77°F
Humidity Altimeter Pressure
84% 29.91" Hg 1013 hPa